KPVW/PVW METAR and TAF weather

Enter ICAO airport designator
Station Type Date Time Source
KPVW METAR 2019/08/24 18:35 UTC NOAA

KPVW 241835Z AUTO 24006KT 10SM CLR 27/19 A3004 RMK AO2 T02710185


Station Type Date Time Source
KPVW Decoded METAR 2019/08/24 18:35 UTC NOAA

Station name not available
Aug 24, 2019 - 02:35 PM EDT / 2019.08.24 1835 UTC
Wind: from the WSW (240 degrees) at 7 MPH (6 KT):0
Visibility: 10 mile(s):0
Sky conditions: clear
Temperature: 80.8 F (27.1 C)
Dew Point: 65.3 F (18.5 C)
Relative Humidity: 59%
Pressure (altimeter): 30.04 in. Hg (1017 hPa)
ob: KPVW 241835Z AUTO 24006KT 10SM CLR 27/19 A3004 RMK AO2 T02710185
cycle: 18

Station Type Date Time Source
KPVW TAF 2019/08/24 18:42 UTC NOAA

TAF KPVW 241741Z 2418/2518 25007KT P6SM FEW060 SCT250

Example: see airport list